createdAt,value
2019-04-03T00:01:06.715Z,4.70
2019-04-03T00:03:38.487Z,4.73
2019-04-03T00:06:11.877Z,4.80
2019-04-03T00:08:43.639Z,5.10
2019-04-03T00:11:15.477Z,5.30
2019-04-03T00:13:47.136Z,4.70
2019-04-03T00:16:18.848Z,4.78
2019-04-03T00:18:50.563Z,5.90
2019-04-03T00:21:22.309Z,5.10
2019-04-03T00:23:54.995Z,5.20
2019-04-03T00:26:26.761Z,6.03
2019-04-03T00:28:58.661Z,5.57
2019-04-03T00:31:30.424Z,5.47
2019-04-03T00:34:02.125Z,5.30
2019-04-03T00:36:33.841Z,5.30
2019-04-03T00:39:07.745Z,5.00
2019-04-03T00:41:39.515Z,5.70
2019-04-03T00:44:11.585Z,5.30
2019-04-03T00:46:43.353Z,4.90
2019-04-03T00:49:15.087Z,5.00
2019-04-03T00:51:46.894Z,5.03
2019-04-03T00:54:18.634Z,5.17
2019-04-03T00:56:50.346Z,4.70
2019-04-03T00:59:22.364Z,5.45
2019-04-03T01:01:56.061Z,5.77
2019-04-03T01:04:28.809Z,4.92
2019-04-03T01:07:01.308Z,5.13
2019-04-03T01:09:32.993Z,5.60
2019-04-03T01:12:04.692Z,5.13
2019-04-03T01:14:36.374Z,5.33
2019-04-03T01:17:08.071Z,5.60
2019-04-03T01:19:40.147Z,4.87
2019-04-03T01:22:11.802Z,5.27
2019-04-03T01:24:43.505Z,4.80
2019-04-03T01:27:15.203Z,4.60
2019-04-03T01:29:47.040Z,4.80
2019-04-03T01:32:18.473Z,5.33
2019-04-03T01:34:50.166Z,5.07
2019-04-03T01:37:22.132Z,5.08
2019-04-03T01:39:54.430Z,5.47
2019-04-03T01:42:26.121Z,4.75
2019-04-03T01:44:57.797Z,5.57
2019-04-03T01:47:30.133Z,5.30
2019-04-03T01:50:01.830Z,4.90
2019-04-03T01:52:33.511Z,5.03
2019-04-03T01:55:05.534Z,5.17
2019-04-03T01:57:37.434Z,5.17
2019-04-03T02:00:10.289Z,5.10
2019-04-03T02:02:42.446Z,5.07
2019-04-03T02:05:14.270Z,5.10
2019-04-03T02:07:46.165Z,5.57
2019-04-03T02:10:20.154Z,5.25
2019-04-03T02:12:51.928Z,5.17
2019-04-03T02:15:23.932Z,5.08
2019-04-03T02:17:56.062Z,5.60
2019-04-03T02:20:27.767Z,5.47
2019-04-03T02:23:00.486Z,5.70
2019-04-03T02:25:32.585Z,5.67
2019-04-03T02:28:04.563Z,5.50
2019-04-03T02:30:36.720Z,5.10
2019-04-03T02:33:08.489Z,5.20
2019-04-03T02:35:40.943Z,5.40
2019-04-03T02:38:12.812Z,4.93
2019-04-03T02:40:44.574Z,5.20
2019-04-03T02:43:16.650Z,5.50
2019-04-03T02:45:48.730Z,6.00
2019-04-03T02:48:20.693Z,5.87
2019-04-03T02:50:52.944Z,6.03
2019-04-03T02:53:24.893Z,5.90
2019-04-03T02:55:56.710Z,6.33
2019-04-03T02:58:28.448Z,6.05
2019-04-03T03:01:00.524Z,6.17
2019-04-03T03:03:32.458Z,6.17
2019-04-03T03:06:04.472Z,6.90
2019-04-03T03:08:40.742Z,6.13
2019-04-03T03:11:10.323Z,5.60
2019-04-03T03:13:42.293Z,6.30
2019-04-03T03:16:17.327Z,6.07
2019-04-03T03:18:48.257Z,6.00
2019-04-03T03:21:21.488Z,5.80
2019-04-03T03:23:56.220Z,6.00
2019-04-03T03:26:27.545Z,5.70
2019-04-03T03:29:15.383Z,6.23
2019-04-03T03:31:59.676Z,6.20
2019-04-03T03:34:07.931Z,5.83
2019-04-03T03:36:41.566Z,6.50
2019-04-03T03:39:14.833Z,6.60
2019-04-03T03:41:47.167Z,6.47
2019-04-03T03:44:21.599Z,7.33
2019-04-03T03:46:55.118Z,6.37
2019-04-03T03:49:27.837Z,6.08
2019-04-03T03:52:03.966Z,6.10
2019-04-03T03:54:35.099Z,6.95
2019-04-03T03:57:07.528Z,6.57
2019-04-03T03:59:40.860Z,6.15
2019-04-03T04:02:12.749Z,6.23
2019-04-03T04:04:48.156Z,6.70
2019-04-03T04:07:18.360Z,6.60
2019-04-03T04:09:53.241Z,7.17
2019-04-03T04:12:25.757Z,6.70
2019-04-03T04:14:58.992Z,6.80
2019-04-03T04:17:31.067Z,7.70
2019-04-03T04:20:05.317Z,6.77
2019-04-03T04:22:37.323Z,7.83
2019-04-03T04:25:09.775Z,7.83
2019-04-03T04:27:43.363Z,7.60
2019-04-03T04:30:19.643Z,7.13
2019-04-03T04:32:51.399Z,7.20
2019-04-03T04:35:23.325Z,6.92
2019-04-03T04:37:55.971Z,7.50
2019-04-03T04:40:28.978Z,7.73
2019-04-03T04:43:04.161Z,7.65
2019-04-03T04:45:35.921Z,7.37
2019-04-03T04:48:07.838Z,7.83
2019-04-03T04:50:39.643Z,7.33
2019-04-03T04:53:12.049Z,7.27
2019-04-03T04:55:43.842Z,7.17
2019-04-03T04:58:15.580Z,7.25
2019-04-03T05:00:47.849Z,6.23
2019-04-03T05:03:21.854Z,6.03
2019-04-03T05:05:53.546Z,5.07
2019-04-03T05:08:25.368Z,4.95
2019-04-03T05:10:57.233Z,5.20
2019-04-03T05:13:29.181Z,4.30
2019-04-03T05:16:00.976Z,4.20
2019-04-03T05:18:32.787Z,3.40
2019-04-03T05:21:05.274Z,3.40
2019-04-03T05:23:37.207Z,3.57
2019-04-03T05:26:08.924Z,3.73
2019-04-03T05:28:53.311Z,4.20
2019-04-03T05:31:14.324Z,2.98
2019-04-03T05:33:46.208Z,3.67
2019-04-03T05:36:18.400Z,3.85
2019-04-03T05:38:51.047Z,3.00
2019-04-03T05:41:23.660Z,2.92
2019-04-03T05:43:55.398Z,3.13
2019-04-03T05:46:27.125Z,3.75
2019-04-03T05:49:00.168Z,3.07
2019-04-03T05:51:32.018Z,3.60
2019-04-03T05:54:03.800Z,3.07
2019-04-03T05:56:35.616Z,2.90
2019-04-03T05:59:08.681Z,3.50
2019-04-03T06:01:41.959Z,3.30
2019-04-03T06:04:14.006Z,3.17
2019-04-03T06:06:46.881Z,3.17
2019-04-03T06:09:20.089Z,3.37
2019-04-03T06:11:52.857Z,3.30
2019-04-03T06:14:24.627Z,3.52
2019-04-03T06:16:57.724Z,3.57
2019-04-03T06:19:29.474Z,3.47
2019-04-03T06:22:01.368Z,3.40
2019-04-03T06:24:33.106Z,3.20
2019-04-03T06:27:05.001Z,3.40
2019-04-03T06:29:36.795Z,3.10
2019-04-03T06:32:08.593Z,3.70
2019-04-03T06:34:43.331Z,3.53
2019-04-03T06:37:14.263Z,3.77
2019-04-03T06:39:46.005Z,3.60
2019-04-03T06:42:18.008Z,3.90
2019-04-03T06:44:52.753Z,3.70
2019-04-03T06:47:23.263Z,3.60
2019-04-03T06:49:54.997Z,3.80
2019-04-03T06:52:26.805Z,3.45
2019-04-03T06:54:58.594Z,3.12
2019-04-03T06:57:30.323Z,4.10
2019-04-03T07:00:02.297Z,4.13
2019-04-03T07:02:34.383Z,3.87
2019-04-03T07:05:09.637Z,3.70
2019-04-03T07:07:40.167Z,3.60
2019-04-03T07:10:24.488Z,3.57
2019-04-03T07:12:47.833Z,4.17
2019-04-03T07:15:19.010Z,3.45
2019-04-03T07:17:52.007Z,4.10
2019-04-03T07:20:23.973Z,4.10
2019-04-03T07:22:56.977Z,3.53
2019-04-03T07:25:29.149Z,3.37
2019-04-03T07:28:00.867Z,3.60
2019-04-03T07:30:32.664Z,3.40
2019-04-03T07:33:05.802Z,4.07
2019-04-03T07:35:40.222Z,3.40
2019-04-03T07:38:12.749Z,3.10
2019-04-03T07:40:44.558Z,3.60
2019-04-03T07:43:16.533Z,3.37
2019-04-03T07:45:48.254Z,3.67
2019-04-03T07:48:20.049Z,3.55
2019-04-03T07:50:51.860Z,3.10
2019-04-03T07:53:23.594Z,3.47
2019-04-03T07:55:55.975Z,3.60
2019-04-03T07:58:30.531Z,3.35
2019-04-03T08:01:01.415Z,3.40
2019-04-03T08:03:33.210Z,3.40
2019-04-03T08:06:05.629Z,3.40
2019-04-03T08:08:37.341Z,3.73
2019-04-03T08:11:09.153Z,3.10
2019-04-03T08:13:40.871Z,3.50
2019-04-03T08:16:15.130Z,3.23
2019-04-03T08:18:46.323Z,3.50
2019-04-03T08:21:18.060Z,3.42
2019-04-03T08:23:50.029Z,3.23
2019-04-03T08:26:21.806Z,3.37
2019-04-03T08:28:53.647Z,3.03
2019-04-03T08:31:25.723Z,3.33
2019-04-03T08:33:59.517Z,4.10
2019-04-03T08:36:30.942Z,3.43
2019-04-03T08:39:03.309Z,3.70
2019-04-03T08:41:37.793Z,3.40
2019-04-03T08:44:09.841Z,3.63
2019-04-03T08:46:43.884Z,3.40
2019-04-03T08:49:15.152Z,3.30
2019-04-03T08:51:46.917Z,3.53
2019-04-03T08:54:18.790Z,4.15
2019-04-03T08:56:50.851Z,3.40
2019-04-03T08:59:22.647Z,3.40
2019-04-03T09:01:55.760Z,3.37
2019-04-03T09:04:28.241Z,3.60
2019-04-03T09:07:00.092Z,3.13
2019-04-03T09:09:34.894Z,3.67
2019-04-03T09:12:07.298Z,3.42
2019-04-03T09:14:39.295Z,3.10
2019-04-03T09:17:11.372Z,3.10
2019-04-03T09:19:43.179Z,3.13
2019-04-03T09:22:14.981Z,3.57
2019-04-03T09:24:46.710Z,2.73
2019-04-03T09:27:18.445Z,3.35
2019-04-03T09:29:50.167Z,3.40
2019-04-03T09:32:22.743Z,3.45
2019-04-03T09:34:55.356Z,3.50
2019-04-03T09:37:27.094Z,3.33
2019-04-03T09:39:58.838Z,1.83
2019-04-03T09:42:30.574Z,3.67
2019-04-03T09:45:02.383Z,3.80
2019-04-03T09:47:34.930Z,3.80
2019-04-03T09:50:10.114Z,3.43
2019-04-03T09:52:48.469Z,3.57
2019-04-03T09:55:15.485Z,3.87
2019-04-03T09:57:47.282Z,3.77
2019-04-03T10:00:19.390Z,3.65
2019-04-03T10:02:51.967Z,2.70
2019-04-03T10:05:23.848Z,3.12
2019-04-03T10:07:56.081Z,3.00
2019-04-03T10:10:28.131Z,3.15
2019-04-03T10:13:00.017Z,3.10
2019-04-03T10:15:32.030Z,2.90
2019-04-03T10:18:04.123Z,1.87
2019-04-03T10:20:36.680Z,2.30
2019-04-03T10:23:08.670Z,2.73
2019-04-03T10:25:40.659Z,3.27
2019-04-03T10:28:14.772Z,3.00
2019-04-03T10:30:46.267Z,2.27
2019-04-03T10:33:18.054Z,2.47
2019-04-03T10:35:50.066Z,2.33
2019-04-03T10:38:22.015Z,2.98
2019-04-03T10:40:56.223Z,2.80
2019-04-03T10:43:27.380Z,2.70
2019-04-03T10:45:59.099Z,3.03
2019-04-03T10:48:30.988Z,3.13
2019-04-03T10:51:02.900Z,3.10
2019-04-03T10:53:34.640Z,3.07
2019-04-03T10:56:07.930Z,3.20
2019-04-03T10:58:42.193Z,2.70
2019-04-03T11:01:13.873Z,3.27
2019-04-03T11:03:45.695Z,2.73
2019-04-03T11:06:17.496Z,3.00
2019-04-03T11:08:49.314Z,3.07
2019-04-03T11:11:21.302Z,3.22
2019-04-03T11:13:54.461Z,3.40
2019-04-03T11:16:26.331Z,3.70
2019-04-03T11:19:02.725Z,3.77
2019-04-03T11:21:32.219Z,4.10
2019-04-03T11:24:06.210Z,3.60
2019-04-03T11:26:38.334Z,3.30
2019-04-03T11:29:10.554Z,4.10
2019-04-03T11:31:43.354Z,3.90
2019-04-03T11:34:17.313Z,4.60
2019-04-03T11:36:48.588Z,4.43
2019-04-03T11:39:20.332Z,4.05
2019-04-03T11:41:54.533Z,4.23
2019-04-03T11:44:25.668Z,4.42
2019-04-03T11:46:57.446Z,4.30
2019-04-03T11:49:29.324Z,4.30
2019-04-03T11:52:01.921Z,4.67
2019-04-03T11:54:34.030Z,4.77
2019-04-03T11:57:06.541Z,4.17
2019-04-03T11:59:38.306Z,5.20
2019-04-03T12:02:12.112Z,3.93
2019-04-03T12:04:44.648Z,4.30
2019-04-03T12:07:16.795Z,4.80
2019-04-03T12:09:48.602Z,4.80
2019-04-03T12:12:20.311Z,4.45
2019-04-03T12:14:52.208Z,5.13
2019-04-03T12:17:23.941Z,5.30
2019-04-03T12:19:55.764Z,4.90
2019-04-03T12:22:27.592Z,4.50
2019-04-03T12:24:59.391Z,4.77
2019-04-03T12:27:31.277Z,4.70
2019-04-03T12:30:03.409Z,4.87
2019-04-03T12:32:38.508Z,5.30
2019-04-03T12:35:09.724Z,4.57
2019-04-03T12:37:42.425Z,5.10
2019-04-03T12:40:14.823Z,5.13
2019-04-03T12:42:46.510Z,4.27
2019-04-03T12:45:18.831Z,4.92
2019-04-03T12:47:50.963Z,5.10
2019-04-03T12:50:26.537Z,5.33
2019-04-03T12:52:57.110Z,5.77
2019-04-03T12:55:29.169Z,5.30
2019-04-03T12:58:02.361Z,4.87
2019-04-03T13:00:34.766Z,4.90
2019-04-03T13:03:06.679Z,5.20
2019-04-03T13:05:38.683Z,5.00
2019-04-03T13:08:12.081Z,5.12
2019-04-03T13:10:47.876Z,5.33
2019-04-03T13:13:18.152Z,5.83
2019-04-03T13:15:50.027Z,5.73
2019-04-03T13:18:22.129Z,5.60
2019-04-03T13:20:54.208Z,6.23
2019-04-03T13:23:25.958Z,5.37
2019-04-03T13:25:57.789Z,5.77
2019-04-03T13:28:29.509Z,5.47
2019-04-03T13:31:01.245Z,5.87
2019-04-03T13:33:32.963Z,5.53
2019-04-03T13:36:05.283Z,6.23
2019-04-03T13:38:37.058Z,5.27
2019-04-03T13:41:10.661Z,5.37
2019-04-03T13:43:42.553Z,5.87
2019-04-03T13:46:15.511Z,5.33
2019-04-03T13:48:47.322Z,5.80
2019-04-03T13:51:19.949Z,5.92
2019-04-03T13:53:53.008Z,6.00
2019-04-03T13:56:25.684Z,6.08
2019-04-03T13:58:57.981Z,5.83
2019-04-03T14:01:30.045Z,5.50
2019-04-03T14:04:01.885Z,6.10
2019-04-03T14:06:36.229Z,6.13
2019-04-03T14:09:08.797Z,6.33
2019-04-03T14:11:41.067Z,5.83
2019-04-03T14:14:15.729Z,6.40
2019-04-03T14:16:46.722Z,5.40
2019-04-03T14:19:18.926Z,6.37
2019-04-03T14:21:50.871Z,6.17
2019-04-03T14:24:22.602Z,7.27
2019-04-03T14:26:54.378Z,6.67
2019-04-03T14:29:28.883Z,5.57
2019-04-03T14:31:59.829Z,6.75
2019-04-03T14:34:31.630Z,5.90
2019-04-03T14:37:03.362Z,6.08
2019-04-03T14:39:35.389Z,6.03
2019-04-03T14:42:08.160Z,7.57
2019-04-03T14:44:40.516Z,6.30
2019-04-03T14:47:13.617Z,6.80
2019-04-03T14:49:45.300Z,6.37
2019-04-03T14:52:17.658Z,5.93
2019-04-03T14:54:49.610Z,6.13
2019-04-03T14:57:23.636Z,7.13
2019-04-03T14:59:55.452Z,6.47
2019-04-03T15:02:27.196Z,7.07
2019-04-03T15:04:59.087Z,6.93
2019-04-03T15:07:30.936Z,6.80
2019-04-03T15:10:03.082Z,7.23
2019-04-03T15:12:38.629Z,6.93
2019-04-03T15:15:10.240Z,7.10
2019-04-03T15:17:42.053Z,7.40
2019-04-03T15:20:16.916Z,7.47
2019-04-03T15:22:47.777Z,6.87
2019-04-03T15:25:20.852Z,7.03
2019-04-03T15:27:52.820Z,7.10
2019-04-03T15:30:25.824Z,7.80
2019-04-03T15:32:57.971Z,14.20
2019-04-03T15:35:32.172Z,12.50
2019-04-03T15:38:04.168Z,8.53
2019-04-03T15:40:36.278Z,8.07
2019-04-03T15:43:10.832Z,7.53
2019-04-03T15:45:42.122Z,8.13
2019-04-03T15:48:13.942Z,8.00
2019-04-03T15:50:45.742Z,7.80
2019-04-03T15:53:17.992Z,7.13
2019-04-03T15:55:50.117Z,7.63
2019-04-03T15:58:22.853Z,8.30
2019-04-03T16:00:55.313Z,9.47
2019-04-03T16:03:27.467Z,9.07
2019-04-03T16:06:03.504Z,8.43
2019-04-03T16:08:34.313Z,7.73
2019-04-03T16:11:06.200Z,7.57
2019-04-03T16:13:37.943Z,7.13
2019-04-03T16:16:09.745Z,8.00
2019-04-03T16:18:41.484Z,7.20
2019-04-03T16:21:13.351Z,3.97
2019-04-03T16:23:45.328Z,7.03
2019-04-03T16:26:17.081Z,6.13
2019-04-03T16:28:48.891Z,6.90
2019-04-03T16:31:21.793Z,7.43
2019-04-03T16:33:55.132Z,10.97
2019-04-03T16:36:27.031Z,7.90
2019-04-03T16:39:01.102Z,6.90
2019-04-03T16:41:33.719Z,6.90
2019-04-03T16:44:06.396Z,7.40
2019-04-03T16:46:38.173Z,7.23
2019-04-03T16:49:10.418Z,5.43
2019-04-03T16:51:42.490Z,6.10
2019-04-03T16:54:14.385Z,8.30
2019-04-03T16:56:46.990Z,7.73
2019-04-03T16:59:19.693Z,7.05
2019-04-03T17:01:51.504Z,6.80
2019-04-03T17:04:27.128Z,6.33
2019-04-03T17:06:56.961Z,5.60
2019-04-03T17:09:28.803Z,6.77
2019-04-03T17:12:01.111Z,5.17
2019-04-03T17:14:33.131Z,4.87
2019-04-03T17:17:04.992Z,5.63
2019-04-03T17:19:37.290Z,5.87
2019-04-03T17:22:09.478Z,3.13
2019-04-03T17:24:46.441Z,3.77
2019-04-03T17:27:15.392Z,2.70
2019-04-03T17:29:48.113Z,3.30
2019-04-03T17:32:19.943Z,3.02
2019-04-03T17:34:51.669Z,2.55
2019-04-03T17:37:27.101Z,1.67
2019-04-03T17:39:58.584Z,1.70
2019-04-03T17:42:30.309Z,1.27
2019-04-03T17:45:02.182Z,1.27
2019-04-03T17:47:34.171Z,1.60
2019-04-03T17:50:06.744Z,1.60
2019-04-03T17:52:39.567Z,1.00
2019-04-03T17:55:11.930Z,1.27
2019-04-03T17:57:45.271Z,1.17
2019-04-03T18:00:20.976Z,0.98
2019-04-03T18:02:53.527Z,0.87
2019-04-03T18:05:26.118Z,1.10
2019-04-03T18:07:58.883Z,1.00
2019-04-03T18:10:31.285Z,1.00
2019-04-03T18:13:03.217Z,1.23
2019-04-03T18:15:35.100Z,1.50
2019-04-03T18:18:06.913Z,1.93
2019-04-03T18:20:38.744Z,1.60
2019-04-03T18:23:11.448Z,1.10
2019-04-03T18:25:44.228Z,2.00
2019-04-03T18:28:15.955Z,1.60
2019-04-03T18:30:48.232Z,0.90
2019-04-03T18:33:20.032Z,1.35
2019-04-03T18:35:51.779Z,2.63
2019-04-03T18:38:23.756Z,0.93
2019-04-03T18:40:55.578Z,2.50
2019-04-03T18:43:27.304Z,2.00
2019-04-03T18:46:00.230Z,2.57
2019-04-03T18:48:32.040Z,2.50
2019-04-03T18:51:06.432Z,2.20
2019-04-03T18:53:38.880Z,2.43
2019-04-03T18:56:11.743Z,2.50
2019-04-03T18:58:44.025Z,1.10
2019-04-03T19:01:17.175Z,2.40
2019-04-03T19:03:49.150Z,2.30
2019-04-03T19:06:20.950Z,2.70
2019-04-03T19:08:52.675Z,2.50
2019-04-03T19:11:24.832Z,1.95
2019-04-03T19:13:56.567Z,2.87
2019-04-03T19:16:29.777Z,2.62
2019-04-03T19:19:07.806Z,2.03
2019-04-03T19:21:35.729Z,3.90
2019-04-03T19:24:07.552Z,2.70
2019-04-03T19:26:40.370Z,2.40
2019-04-03T19:29:12.142Z,2.07
2019-04-03T19:31:43.865Z,2.80
2019-04-03T19:34:19.612Z,2.90
2019-04-03T19:36:49.145Z,2.60
2019-04-03T19:39:20.901Z,2.60
2019-04-03T19:41:52.774Z,2.50
2019-04-03T19:44:24.490Z,1.77
2019-04-03T19:46:56.310Z,2.60
2019-04-03T19:49:28.242Z,2.35
2019-04-03T19:52:00.039Z,2.63
2019-04-03T19:54:31.761Z,3.90
2019-04-03T19:57:03.516Z,2.17
2019-04-03T19:59:35.304Z,3.40
2019-04-03T20:02:09.340Z,3.33
2019-04-03T20:04:40.924Z,2.37
2019-04-03T20:07:12.834Z,3.40
2019-04-03T20:09:44.835Z,3.93
2019-04-03T20:12:17.750Z,3.60
2019-04-03T20:14:57.989Z,2.13
2019-04-03T20:17:24.523Z,1.80
2019-04-03T20:19:57.919Z,3.73
2019-04-03T20:22:31.479Z,4.13
2019-04-03T20:25:03.223Z,3.27
2019-04-03T20:27:35.130Z,1.27
2019-04-03T20:30:07.548Z,3.20
2019-04-03T20:32:40.726Z,3.20
2019-04-03T20:35:12.988Z,3.23
2019-04-03T20:37:44.758Z,3.23
2019-04-03T20:40:16.689Z,3.10
2019-04-03T20:42:48.525Z,2.97
2019-04-03T20:45:20.486Z,2.85
2019-04-03T20:47:52.263Z,3.33
2019-04-03T20:50:24.088Z,2.35
2019-04-03T20:52:57.096Z,4.10
2019-04-03T20:55:29.379Z,5.00
2019-04-03T20:58:01.267Z,4.13
2019-04-03T21:00:33.147Z,3.70
2019-04-03T21:03:05.002Z,3.90
2019-04-03T21:05:36.793Z,5.80
2019-04-03T21:08:09.848Z,5.10
2019-04-03T21:10:41.905Z,3.63
2019-04-03T21:13:15.446Z,2.30
2019-04-03T21:15:47.122Z,6.60
2019-04-03T21:18:20.694Z,6.50
2019-04-03T21:20:52.810Z,4.97
2019-04-03T21:23:26.738Z,5.87
2019-04-03T21:25:58.659Z,7.10
2019-04-03T21:28:30.466Z,7.90
2019-04-03T21:31:02.184Z,7.07
2019-04-03T21:33:33.901Z,7.92
2019-04-03T21:36:07.083Z,8.40
2019-04-03T21:38:39.935Z,8.70
2019-04-03T21:41:12.869Z,8.80
2019-04-03T21:43:44.592Z,8.23
2019-04-03T21:46:16.644Z,9.50
2019-04-03T21:48:48.375Z,8.20
2019-04-03T21:51:20.870Z,9.70
2019-04-03T21:53:55.839Z,8.37
2019-04-03T21:56:26.554Z,8.73
2019-04-03T21:58:58.338Z,9.87
2019-04-03T22:01:30.138Z,9.53
2019-04-03T22:04:01.952Z,10.20
2019-04-03T22:06:33.744Z,8.67
2019-04-03T22:09:10.622Z,10.53
2019-04-03T22:11:42.747Z,9.83
2019-04-03T22:14:14.481Z,9.07
2019-04-03T22:16:46.234Z,10.10
2019-04-03T22:19:17.972Z,11.45
2019-04-03T22:21:49.678Z,10.00
2019-04-03T22:24:21.577Z,11.40
2019-04-03T22:26:53.300Z,10.90
2019-04-03T22:29:25.030Z,9.68
2019-04-03T22:31:57.914Z,11.23
2019-04-03T22:34:29.902Z,10.80
2019-04-03T22:37:04.541Z,12.00
2019-04-03T22:39:37.048Z,10.37
2019-04-03T22:42:09.357Z,12.30
2019-04-03T22:44:41.097Z,12.50
2019-04-03T22:47:12.823Z,12.30
2019-04-03T22:49:44.590Z,11.77
2019-04-03T22:52:16.310Z,12.88
2019-04-03T22:54:48.047Z,13.00
2019-04-03T22:57:20.227Z,12.28
2019-04-03T22:59:54.483Z,10.47
2019-04-03T23:02:25.562Z,10.65
2019-04-03T23:04:57.419Z,10.50
2019-04-03T23:07:29.143Z,10.97
2019-04-03T23:10:01.008Z,10.70
2019-04-03T23:12:33.314Z,8.13
2019-04-03T23:15:08.616Z,8.67
2019-04-03T23:17:39.830Z,7.47
2019-04-03T23:20:11.803Z,10.40
2019-04-03T23:22:43.525Z,4.50
2019-04-03T23:25:15.259Z,10.07
2019-04-03T23:27:47.101Z,10.70
2019-04-03T23:30:19.178Z,6.03
2019-04-03T23:32:50.960Z,8.90
2019-04-03T23:35:22.767Z,8.33
2019-04-03T23:37:55.802Z,13.03
2019-04-03T23:40:28.170Z,11.10
2019-04-03T23:43:00.475Z,13.03
2019-04-03T23:45:32.511Z,8.40
2019-04-03T23:48:04.313Z,12.33
2019-04-03T23:50:36.132Z,12.67
2019-04-03T23:53:07.848Z,9.73
2019-04-03T23:55:39.930Z,8.73
2019-04-03T23:58:12.290Z,12.37
